Terminal Aerodrome Forecast
Issued by NWS

Home | Current Version | Previous Version | Text Only | Print | Product List | Glossary Off
Versions: 1 2 3 4 5 6 7 8 9 10 11 12 13 14 15 16 17 18 19 20 21 22 23 24 25

867
FTUS43 KSGF 061422 AAB
TAFJLN
TAF AMD
KJLN 061422Z 0614/0712 34008KT P6SM OVC010
     FM061500 35010KT 6SM BR SCT030
     FM061700 35012KT P6SM SCT140
     FM062200 35007KT P6SM FEW200
     FM070100 VRB03KT P6SM BKN250=

USA.gov is the U.S. government's official web portal to all federal, state and local government web resources and services.